Flight Track Log - Related Links

Times and Time Zones

All times are in EDT time to prevent confusion due to time zone crossing. See the SKW5631 flight status page for this flight to view local times or setup timezone preferences in your user account.

Time Position Orientation Groundspeed Altitude Reporting Facility
EDT Latitude Longitude Course Direction KTS MPH feet Rate Location/Type
Tue 11:04:46 PM 37.6500 -122.3667 345° North 168 193 1,600  Level Northern Cal TRACON
Tue 11:05:46 PM 37.7000 -122.3833 345° North 222 255 4,600 3,150 Climbing Northern Cal TRACON
Tue 11:06:46 PM 37.6500 -122.4333 218° Southwest 250 288 7,900 3,300 Climbing Northern Cal TRACON
Tue 11:07:46 PM 37.5833 -122.4667 202° Southwest 255 293 11,200 2,933 Climbing Northern Cal TRACON
Tue 11:08:16 PM 37.5558 -122.4567 164° South 252 290 12,300 1,826 Climbing Oakland Center
Tue 11:09:18 PM 37.5003 -122.3983 140° Southeast 261 300 14,000 1,902 Climbing Oakland Center
Tue 11:10:19 PM 37.4411 -122.3350 140° Southeast 278 320 16,200 2,262 Climbing Oakland Center
Tue 11:11:20 PM 37.3758 -122.2639 139° Southeast 307 353 18,600 2,459 Climbing Oakland Center
Tue 11:12:21 PM 37.3092 -122.1922 139° Southeast 314 361 21,200 2,390 Climbing Oakland Center
Tue 11:13:23 PM 37.2403 -122.1167 139° Southeast 325 374 23,500 2,390 Climbing Oakland Center
Tue 11:14:24 PM 37.1528 -122.0231 140° Southeast 343 395 26,100 2,213 Climbing Oakland Center
Tue 11:15:25 PM 37.0786 -121.9414 139° Southeast 352 405 28,000 1,721 Climbing Oakland Center
Tue 11:16:26 PM 37.0017 -121.8578 139° Southeast 364 419 29,600 1,561 Climbing Oakland Center
Tue 11:17:28 PM 36.9194 -121.7731 141° Southeast 382 440 31,200 1,512 Climbing Oakland Center
Tue 11:18:29 PM 36.8372 -121.6856 140° Southeast 385 443 32,700 885 Climbing Oakland Center
Tue 11:19:30 PM 36.7556 -121.5983 139° Southeast 395 455 33,000 148 Climbing Oakland Center
Tue 11:20:31 PM 36.6733 -121.5094 139° Southeast 395 455 33,000  Level Oakland Center
Tue 11:21:32 PM 36.5794 -121.4500 153° Southeast 384 442 33,000 -1,073 Level Oakland Center
Tue 11:22:34 PM 36.4622 -121.5014 199° South 373 429 30,800 -2,049 Descending Oakland Center
Tue 11:23:35 PM 36.4006 -121.5831 227° Southwest 356 410 28,800 -1,967 Descending Oakland Center
Tue 11:24:36 PM 36.3853 -121.6936 260° West 330 380 26,800 -1,967 Descending Oakland Center
Tue 11:25:37 PM 36.4253 -121.7819 299° West 311 358 24,800 -1,623 Descending Oakland Center
Tue 11:26:38 PM 36.5097 -121.8267 337° Northwest 308 354 23,500 -1,377 Descending Oakland Center
Tue 11:27:39 PM 36.5764 -121.8653 335° Northwest 265 305 22,000 -1,688 Descending Oakland Center
Tue 11:28:46 PM 36.6500 -121.9167 331° Northwest 306 352 19,900 -1,701 Descending Northern Cal TRACON
Tue 11:29:46 PM 36.7167 -121.9500 338° Northwest 270 311 18,400 -1,450 Descending Northern Cal TRACON
Tue 11:30:46 PM 36.7833 -121.9833 338° Northwest 255 293 17,000 -1,450 Descending Northern Cal TRACON
Tue 11:31:46 PM 36.8667 -122.0000 351° North 253 291 15,500 -1,500 Descending Northern Cal TRACON
Tue 11:32:46 PM 36.9333 -122.0167 349° North 251 289 14,000 -1,388 Descending Northern Cal TRACON
Tue 11:33:47 PM 36.9858 -122.0300 349° North 253 291 12,700 -1,525 Descending Oakland Center
Tue 11:34:48 PM 37.0681 -122.0506 349° North 253 291 10,900 -1,377 Descending Oakland Center
Tue 11:35:49 PM 37.1353 -122.0678 348° North 251 289 9,900 -738 Descending Oakland Center
Tue 11:36:50 PM 37.1997 -122.0842 349° North 242 278 9,400 -885 Descending Oakland Center
Tue 11:37:51 PM 37.2633 -122.1008 348° North 238 274 8,100 -1,328 Descending Oakland Center
Tue 11:38:52 PM 37.3258 -122.1192 347° North 235 270 6,700 -1,252 Descending Oakland Center
Tue 11:39:46 PM 37.3833 -122.1333 349° North 230 265 5,700 -1,053 Descending Northern Cal TRACON
Tue 11:40:46 PM 37.4500 -122.1333 360° North 217 250 4,700 -850 Descending Northern Cal TRACON
Tue 11:41:46 PM 37.5000 -122.1500 345° North 209 241 4,000 -870 Descending Northern Cal TRACON
Tue 11:42:57 PM 37.5453 -122.1942 322° Northwest 203 234 2,800 -955 Descending Oakland Center
Tue 11:43:58 PM 37.5664 -122.2489 296° West 185 213 1,900 -934 Descending Oakland Center
Tue 11:44:59 PM 37.5914 -122.3061 299° West 166 191 900 -787 Descending Oakland Center
Tue 11:46:00 PM 37.6067 -122.3414 299° West 136 157 300 -590 Descending Oakland Center
Tue 11:49:00 PM 37.6167 -122.3667 322° Northwest  Level FlightAware Approximate

Login

Don't have an account? Register now (free) for customized features, flight alerts, and more!